Time;durP1;ratioP1;P1;durP2;ratioP2;P2;SDS_P1;SDS_P2;PMS_P1;PMS_P2;Temp;Humidity;BMP_temperature;BMP_pressure;BME280_temperature;BME280_humidity;BME280_pressure;Samples;Min_cycle;Max_cycle;Signal;HPM_P1;HPM_P2
2021/07/13 00:02:15;;;;;;;;;;;;;;;18.55;72.75;99327.44;4976425;28;19945;-65
2021/07/13 00:05:00;;;;;;;;;;;;;;;18.55;72.71;99329.19;4977051;28;19925;-65
2021/07/13 00:07:44;;;;;;;;;;;;;;;18.54;72.89;99323.09;4976641;28;19925;-65
2021/07/13 00:10:30;;;;;;;;;;;;;;;18.55;72.91;99310.81;4977259;28;19989;-65
2021/07/13 00:13:14;;;;;;;;;;;;;;;18.55;72.79;99303.81;4976914;28;19925;-65
2021/07/13 00:15:58;;;;;;;;;;;;;;;18.54;72.89;99307.34;4976532;28;19925;-64
2021/07/13 00:18:42;;;;;;;;;;;;;;;18.54;72.76;99316.97;4976551;28;20326;-64
2021/07/13 00:21:26;;;;;;;;;;;;;;;18.54;72.84;99328.34;4977121;28;19968;-64
2021/07/13 00:24:10;;;;;;;;;;;;;;;18.55;72.88;99321.31;4976222;28;19965;-65
2021/07/13 00:26:54;;;;;;;;;;;;;;;18.54;72.97;99319.59;4977403;28;19950;-65
2021/07/13 00:29:38;;;;;;;;;;;;;;;18.53;72.79;99318.75;4976378;28;19925;-65
2021/07/13 00:32:24;;;;;;;;;;;;;;;18.53;72.97;99308.25;4976687;28;19925;-65
2021/07/13 00:35:09;;;;;;;;;;;;;;;18.52;72.98;99314.38;4976821;28;19925;-65
2021/07/13 00:37:53;;;;;;;;;;;;;;;18.52;72.83;99321.41;4976574;28;19949;-64
2021/07/13 00:40:36;;;;;;;;;;;;;;;18.52;73.05;99314.38;4977222;28;19925;-64
2021/07/13 00:43:23;;;;;;;;;;;;;;;18.54;73.05;99311.72;4976093;28;20273;-65
2021/07/13 00:46:07;;;;;;;;;;;;;;;18.52;72.91;99314.38;4976294;28;20404;-65
2021/07/13 00:48:52;;;;;;;;;;;;;;;18.52;73.00;99311.75;4975678;28;19968;-65
2021/07/13 00:51:36;;;;;;;;;;;;;;;18.52;72.98;99317.00;4976534;28;19964;-64
2021/07/13 00:54:20;;;;;;;;;;;;;;;18.50;73.06;99302.22;4976026;28;19924;-64
2021/07/13 00:57:11;;;;;;;;;;;;;;;18.49;72.88;99306.59;4975577;28;19992;-64
2021/07/13 00:59:54;;;;;;;;;;;;;;;18.48;72.88;99304.03;4975297;28;19945;-65
2021/07/13 01:02:39;;;;;;;;;;;;;;;18.47;73.07;99300.53;4976624;28;19924;-64
2021/07/13 01:05:28;;;;;;;;;;;;;;;18.45;72.95;99304.13;4976699;28;20281;-64
2021/07/13 01:08:30;;;;;;;;;;;;;;;18.45;73.03;99296.25;4976743;28;19988;-65
2021/07/13 01:11:22;;;;;;;;;;;;;;;18.44;73.07;99298.03;4976306;28;20396;-65
2021/07/13 01:14:09;;;;;;;;;;;;;;;18.43;73.03;99296.31;4975785;28;20332;-65
2021/07/13 01:16:57;;;;;;;;;;;;;;;18.43;73.22;99298.94;4976328;28;19925;-64
2021/07/13 01:19:53;;;;;;;;;;;;;;;18.42;72.89;99299.81;4976195;28;19925;-64
2021/07/13 01:22:45;;;;;;;;;;;;;;;18.42;73.15;99290.19;4976275;28;19925;-64
2021/07/13 01:25:28;;;;;;;;;;;;;;;18.41;72.95;99279.75;4976013;28;20016;-64
2021/07/13 01:28:16;;;;;;;;;;;;;;;18.42;73.03;99273.59;4974997;28;20057;-64
2021/07/13 01:31:02;;;;;;;;;;;;;;;18.40;73.13;99272.78;4975874;28;20304;-64
2021/07/13 01:33:49;;;;;;;;;;;;;;;18.39;73.00;99279.75;4975734;28;19925;-64
2021/07/13 01:36:36;;;;;;;;;;;;;;;18.39;73.04;99277.16;4975129;28;19925;-64
2021/07/13 01:39:20;;;;;;;;;;;;;;;18.38;73.06;99280.66;4975659;28;20388;-63
2021/07/13 01:42:07;;;;;;;;;;;;;;;18.37;73.09;99275.47;4974903;28;19980;-64
2021/07/13 01:44:51;;;;;;;;;;;;;;;18.37;73.31;99284.19;4975597;28;19924;-64
2021/07/13 01:47:36;;;;;;;;;;;;;;;18.37;73.23;99283.34;4975428;28;20402;-64
2021/07/13 01:50:21;;;;;;;;;;;;;;;18.36;73.08;99281.63;4974845;28;20397;-65
2021/07/13 01:53:06;;;;;;;;;;;;;;;18.35;73.25;99277.28;4974657;28;19960;-65
2021/07/13 01:55:52;;;;;;;;;;;;;;;18.35;73.13;99282.53;4975338;28;19925;-65
2021/07/13 01:58:37;;;;;;;;;;;;;;;18.34;73.25;99293.91;4975487;28;20329;-65
2021/07/13 02:01:22;;;;;;;;;;;;;;;18.34;73.25;99301.78;4975375;28;19925;-65
2021/07/13 02:04:07;;;;;;;;;;;;;;;18.34;73.27;99296.53;4974234;28;19925;-65
2021/07/13 02:06:52;;;;;;;;;;;;;;;18.32;73.35;99307.09;4975138;28;19925;-65
2021/07/13 02:09:37;;;;;;;;;;;;;;;18.31;73.35;99308.00;4975518;28;20377;-65
2021/07/13 02:12:21;;;;;;;;;;;;;;;18.31;73.28;99313.22;4975641;28;20005;-65
2021/07/13 02:15:05;;;;;;;;;;;;;;;18.31;73.13;99304.47;4974981;28;19992;-65
2021/07/13 02:17:50;;;;;;;;;;;;;;;18.30;73.39;99303.66;4974038;28;20350;-65
2021/07/13 02:20:34;;;;;;;;;;;;;;;18.30;73.34;99301.03;4975067;28;20025;-64
2021/07/13 02:23:18;;;;;;;;;;;;;;;18.30;73.35;99305.38;4975145;28;20281;-64
2021/07/13 02:26:04;;;;;;;;;;;;;;;18.29;73.37;99299.28;4974372;28;19924;-64
2021/07/13 02:28:52;;;;;;;;;;;;;;;18.28;73.38;99297.56;4975391;28;20020;-65
2021/07/13 02:31:40;;;;;;;;;;;;;;;18.28;73.49;99296.72;4974790;28;19925;-65
2021/07/13 02:34:26;;;;;;;;;;;;;;;18.29;73.41;99295.84;4974796;28;20080;-64
2021/07/13 02:37:12;;;;;;;;;;;;;;;18.29;73.43;99295.84;4975144;28;19925;-65
2021/07/13 02:39:57;;;;;;;;;;;;;;;18.28;73.40;99286.25;4974188;28;19925;-65
2021/07/13 02:42:45;;;;;;;;;;;;;;;18.26;73.49;99284.53;4974145;28;19924;-65
2021/07/13 02:45:29;;;;;;;;;;;;;;;18.27;73.27;99274.88;4975334;28;19926;-65
2021/07/13 02:48:14;;;;;;;;;;;;;;;18.26;73.38;99270.53;4974778;28;20007;-65
2021/07/13 02:50:58;;;;;;;;;;;;;;;18.28;73.32;99273.13;4974684;28;19925;-65
2021/07/13 02:53:43;;;;;;;;;;;;;;;18.27;73.31;99272.25;4974386;28;19964;-65
2021/07/13 02:56:28;;;;;;;;;;;;;;;18.26;73.46;99270.53;4974969;28;19925;-65
2021/07/13 02:59:12;;;;;;;;;;;;;;;18.25;73.34;99272.31;4975075;28;19973;-66
2021/07/13 03:01:57;;;;;;;;;;;;;;;18.25;73.50;99261.81;4973650;28;19925;-65
2021/07/13 03:04:42;;;;;;;;;;;;;;;18.25;73.47;99271.44;4973686;28;19924;-65
2021/07/13 03:07:26;;;;;;;;;;;;;;;18.25;73.60;99272.31;4974802;28;19920;-64
2021/07/13 03:10:11;;;;;;;;;;;;;;;18.24;73.51;99270.59;4974844;28;19973;-65
2021/07/13 03:12:58;;;;;;;;;;;;;;;18.24;73.54;99275.81;4975913;28;19929;-66
2021/07/13 03:15:42;;;;;;;;;;;;;;;18.24;73.33;99278.44;4977686;28;20285;-65
2021/07/13 03:18:31;;;;;;;;;;;;;;;18.24;73.38;99280.19;4978477;28;19924;-65
2021/07/13 03:21:22;;;;;;;;;;;;;;;18.23;73.56;99273.22;4977234;28;19972;-66
2021/07/13 03:24:07;;;;;;;;;;;;;;;18.23;73.66;99268.88;4977624;28;19964;-65
2021/07/13 03:26:51;;;;;;;;;;;;;;;18.23;73.60;99267.97;4978493;28;19924;-66
2021/07/13 03:29:37;;;;;;;;;;;;;;;18.22;73.66;99264.50;4977944;28;19976;-66
2021/07/13 03:32:22;;;;;;;;;;;;;;;18.22;73.64;99259.28;4977163;28;19924;-64
2021/07/13 03:35:06;;;;;;;;;;;;;;;18.22;73.39;99263.63;4976918;28;20460;-64
2021/07/13 03:37:53;;;;;;;;;;;;;;;18.22;73.65;99259.28;4977425;28;19941;-64
2021/07/13 03:40:37;;;;;;;;;;;;;;;18.21;73.62;99257.56;4977957;28;20425;-65
2021/07/13 03:43:24;;;;;;;;;;;;;;;18.22;73.43;99264.50;4977039;28;19940;-65
2021/07/13 03:46:09;;;;;;;;;;;;;;;18.21;73.72;99261.94;4977964;28;19940;-65
2021/07/13 03:48:53;;;;;;;;;;;;;;;18.21;73.60;99254.09;4977857;28;19941;-65
2021/07/13 03:51:37;;;;;;;;;;;;;;;18.22;73.84;99253.16;4976762;28;19964;-65
2021/07/13 03:54:21;;;;;;;;;;;;;;;18.21;73.66;99256.72;4978066;28;20380;-65
2021/07/13 03:57:06;;;;;;;;;;;;;;;18.20;73.47;99253.22;4977482;28;19940;-65
2021/07/13 03:59:50;;;;;;;;;;;;;;;18.20;73.73;99255.81;4976860;28;19968;-65
2021/07/13 04:02:34;;;;;;;;;;;;;;;18.20;73.72;99255.81;4975998;28;20394;-66
2021/07/13 04:05:18;;;;;;;;;;;;;;;18.20;73.30;99253.22;4976290;28;20043;-65
2021/07/13 04:08:03;;;;;;;;;;;;;;;18.20;73.67;99247.97;4975370;28;20286;-64
2021/07/13 04:10:46;;;;;;;;;;;;;;;18.20;73.73;99247.97;4976203;28;20350;-64
2021/07/13 04:13:30;;;;;;;;;;;;;;;18.20;73.70;99245.34;4975870;28;20021;-64
2021/07/13 04:16:14;;;;;;;;;;;;;;;18.20;73.71;99252.38;4976650;28;19946;-64
2021/07/13 04:18:58;;;;;;;;;;;;;;;18.19;73.70;99251.47;4975787;28;19925;-65
2021/07/13 04:21:42;;;;;;;;;;;;;;;18.20;73.74;99247.13;4976321;28;19924;-64
2021/07/13 04:24:26;;;;;;;;;;;;;;;18.19;73.79;99254.09;4975686;28;19925;-64
2021/07/13 04:27:10;;;;;;;;;;;;;;;18.17;73.78;99250.66;4976532;28;19925;-65
2021/07/13 04:29:57;;;;;;;;;;;;;;;18.18;73.58;99257.63;4975758;28;19992;-65
2021/07/13 04:32:41;;;;;;;;;;;;;;;18.17;73.79;99262.94;4975397;28;19925;-65
2021/07/13 04:35:25;;;;;;;;;;;;;;;18.17;73.77;99255.91;4975861;28;20472;-65
2021/07/13 04:38:09;;;;;;;;;;;;;;;18.16;73.80;99256.81;4974981;28;19968;-65
2021/07/13 04:40:53;;;;;;;;;;;;;;;18.16;73.84;99255.97;4974454;28;19977;-65
2021/07/13 04:43:37;;;;;;;;;;;;;;;18.15;73.65;99249.84;4975721;28;19924;-65
2021/07/13 04:46:21;;;;;;;;;;;;;;;18.15;73.61;99249.84;4974734;28;19925;-65
2021/07/13 04:49:05;;;;;;;;;;;;;;;18.16;73.84;99250.72;4974918;28;19929;-65
2021/07/13 04:51:49;;;;;;;;;;;;;;;18.15;73.83;99249.00;4975293;28;19942;-65
2021/07/13 04:54:33;;;;;;;;;;;;;;;18.14;73.89;99250.75;4974971;28;19925;-65
2021/07/13 04:57:17;;;;;;;;;;;;;;;18.14;73.65;99261.22;4975493;28;19940;-65
2021/07/13 05:00:02;;;;;;;;;;;;;;;18.14;73.78;99250.75;4975046;28;19980;-65
2021/07/13 05:02:46;;;;;;;;;;;;;;;18.14;73.90;99260.38;4935325;28;1147298;-65
2021/07/13 05:05:30;;;;;;;;;;;;;;;18.14;73.95;99260.38;4975861;28;19925;-65
2021/07/13 05:08:14;;;;;;;;;;;;;;;18.13;73.95;99258.66;4975828;28;19925;-65
2021/07/13 05:10:58;;;;;;;;;;;;;;;18.13;73.96;99264.78;4975376;28;19973;-66
2021/07/13 05:13:41;;;;;;;;;;;;;;;18.13;73.95;99258.66;4975166;28;19925;-66
2021/07/13 05:16:25;;;;;;;;;;;;;;;18.13;74.04;99258.66;4976497;28;19924;-64
2021/07/13 05:19:11;;;;;;;;;;;;;;;18.11;73.85;99249.06;4975038;28;19925;-65
2021/07/13 05:21:56;;;;;;;;;;;;;;;18.11;73.99;99254.31;4975640;28;20405;-65
2021/07/13 05:24:40;;;;;;;;;;;;;;;18.13;74.00;99250.78;4975622;28;19929;-66
2021/07/13 05:27:24;;;;;;;;;;;;;;;18.11;74.05;99249.06;4975458;28;19964;-65
2021/07/13 05:30:09;;;;;;;;;;;;;;;18.11;74.05;99256.09;4974812;28;19925;-65
2021/07/13 05:32:53;;;;;;;;;;;;;;;18.12;73.90;99263.06;4976297;28;20389;-65
2021/07/13 05:35:37;;;;;;;;;;;;;;;18.10;73.93;99263.09;4975039;28;20298;-65
2021/07/13 05:38:26;;;;;;;;;;;;;;;18.10;74.07;99255.22;4975156;28;20282;-64
2021/07/13 05:41:10;;;;;;;;;;;;;;;18.11;74.08;99262.19;4975276;28;19925;-64
2021/07/13 05:43:55;;;;;;;;;;;;;;;18.10;74.23;99265.72;4975575;28;19968;-65
2021/07/13 05:46:39;;;;;;;;;;;;;;;18.11;74.00;99271.84;4975781;28;20000;-65
2021/07/13 05:49:23;;;;;;;;;;;;;;;18.10;74.15;99276.19;4975499;28;19965;-65
2021/07/13 05:52:07;;;;;;;;;;;;;;;18.11;74.07;99269.22;4974448;28;20017;-65
2021/07/13 05:54:51;;;;;;;;;;;;;;;18.12;74.34;99276.16;4974804;28;20389;-66
2021/07/13 05:57:35;;;;;;;;;;;;;;;18.12;74.23;99276.16;4975636;28;20397;-63
2021/07/13 06:00:19;;;;;;;;;;;;;;;18.12;74.21;99265.69;4975517;28;20504;-64
2021/07/13 06:03:05;;;;;;;;;;;;;;;18.12;74.16;99268.31;4975481;28;20053;-65
2021/07/13 06:05:53;;;;;;;;;;;;;;;18.13;74.41;99266.53;4975347;28;19925;-65
2021/07/13 06:08:37;;;;;;;;;;;;;;;18.14;74.30;99268.25;4975189;28;19925;-65
2021/07/13 06:11:20;;;;;;;;;;;;;;;18.14;74.31;99273.50;4974431;28;19925;-65
2021/07/13 06:14:04;;;;;;;;;;;;;;;18.14;74.30;99274.34;4974788;28;19990;-66
2021/07/13 06:16:48;;;;;;;;;;;;;;;18.14;74.25;99271.72;4975623;28;20000;-66
2021/07/13 06:19:36;;;;;;;;;;;;;;;18.14;74.34;99268.25;4975319;28;20352;-65
2021/07/13 06:22:20;;;;;;;;;;;;;;;18.14;74.19;99274.34;4975487;28;19973;-66
2021/07/13 06:25:07;;;;;;;;;;;;;;;18.14;74.41;99278.75;4974246;28;20380;-66
2021/07/13 06:27:53;;;;;;;;;;;;;;;18.14;74.30;99283.97;4975014;28;19924;-65
2021/07/13 06:30:38;;;;;;;;;;;;;;;18.13;74.45;99288.38;4974850;28;19972;-65
2021/07/13 06:33:22;;;;;;;;;;;;;;;18.14;74.45;99295.31;4974748;28;20019;-65
2021/07/13 06:36:06;;;;;;;;;;;;;;;18.14;74.52;99292.69;4975114;28;19925;-66
2021/07/13 06:38:49;;;;;;;;;;;;;;;18.15;74.35;99296.19;4974603;28;20372;-66
2021/07/13 06:41:33;;;;;;;;;;;;;;;18.14;74.39;99295.31;4974995;28;20025;-66
2021/07/13 06:44:17;;;;;;;;;;;;;;;18.14;74.53;99297.94;4974800;28;20349;-66
2021/07/13 06:47:01;;;;;;;;;;;;;;;18.14;74.31;99295.31;4974838;28;19965;-65
2021/07/13 06:49:48;;;;;;;;;;;;;;;18.15;74.59;99288.31;4978519;28;19928;-66
2021/07/13 06:52:32;;;;;;;;;;;;;;;18.15;74.50;99289.19;4977710;28;20333;-65
2021/07/13 06:55:18;;;;;;;;;;;;;;;18.15;74.58;99283.94;4978138;28;19924;-65
2021/07/13 06:58:03;;;;;;;;;;;;;;;18.13;74.53;99288.38;4978720;28;20401;-66
2021/07/13 07:00:46;;;;;;;;;;;;;;;18.14;74.80;99284.81;4978992;28;20262;-65
2021/07/13 07:03:30;;;;;;;;;;;;;;;18.15;74.70;99294.41;4979255;28;19929;-66
2021/07/13 07:06:14;;;;;;;;;;;;;;;18.15;74.80;99285.72;4977815;28;19925;-65
2021/07/13 07:08:58;;;;;;;;;;;;;;;18.14;74.68;99284.81;4978924;28;20266;-66
2021/07/13 07:11:42;;;;;;;;;;;;;;;18.16;74.83;99297.91;4978362;28;20017;-66
2021/07/13 07:14:26;;;;;;;;;;;;;;;18.16;74.66;99297.91;4978444;28;20330;-66
2021/07/13 07:17:10;;;;;;;;;;;;;;;18.17;74.84;99300.50;4978119;28;19925;-66
2021/07/13 07:19:56;;;;;;;;;;;;;;;18.16;74.81;99301.38;4978249;28;19924;-66
2021/07/13 07:22:41;;;;;;;;;;;;;;;18.17;74.85;99291.78;4977918;28;20290;-66
2021/07/13 07:25:27;;;;;;;;;;;;;;;18.17;74.90;99294.41;4978669;28;20000;-66
2021/07/13 07:28:13;;;;;;;;;;;;;;;18.18;74.82;99299.59;4978056;28;20389;-66
2021/07/13 07:30:57;;;;;;;;;;;;;;;18.18;74.71;99302.22;4976954;28;19941;-66
2021/07/13 07:33:41;;;;;;;;;;;;;;;18.19;74.79;99292.59;4978085;28;19941;-65
2021/07/13 07:36:26;;;;;;;;;;;;;;;18.19;75.03;99297.84;4978392;28;20400;-64
2021/07/13 07:39:11;;;;;;;;;;;;;;;18.20;74.71;99294.31;4977948;28;20005;-66
2021/07/13 07:41:54;;;;;;;;;;;;;;;18.21;75.06;99296.88;4978105;28;19925;-66
2021/07/13 07:44:38;;;;;;;;;;;;;;;18.21;75.04;99309.16;4978214;28;19956;-66
2021/07/13 07:47:22;;;;;;;;;;;;;;;18.21;75.08;99309.16;4977356;28;20367;-64
2021/07/13 07:50:07;;;;;;;;;;;;;;;18.21;75.11;99307.38;4977807;28;20290;-65
2021/07/13 07:52:51;;;;;;;;;;;;;;;18.21;75.07;99307.38;4977630;28;20303;-65
2021/07/13 07:55:35;;;;;;;;;;;;;;;18.21;75.14;99306.53;4977844;28;19925;-61
2021/07/13 07:58:19;;;;;;;;;;;;;;;18.22;75.21;99300.34;4976526;28;20289;-61
2021/07/13 08:01:03;;;;;;;;;;;;;;;18.22;75.24;99296.00;4977837;28;20302;-61
2021/07/13 08:03:46;;;;;;;;;;;;;;;18.25;75.26;99303.78;4977575;28;19989;-61
2021/07/13 08:06:33;;;;;;;;;;;;;;;18.26;75.17;99299.38;4977990;28;19925;-63
2021/07/13 08:09:17;;;;;;;;;;;;;;;18.26;75.33;99302.88;4977399;28;19924;-62
2021/07/13 08:12:01;;;;;;;;;;;;;;;18.28;75.38;99299.34;4977456;28;19925;-61
2021/07/13 08:14:45;;;;;;;;;;;;;;;18.29;75.37;99293.22;4977134;28;19945;-61
2021/07/13 08:17:29;;;;;;;;;;;;;;;18.29;75.53;99296.69;4976787;28;20408;-61
2021/07/13 08:20:14;;;;;;;;;;;;;;;18.30;75.33;99289.66;4977656;28;20072;-61
2021/07/13 08:22:59;;;;;;;;;;;;;;;18.30;75.46;99287.91;4976707;28;19940;-61
2021/07/13 08:25:42;;;;;;;;;;;;;;;18.32;75.52;99285.22;4977367;28;19990;-61
2021/07/13 08:28:26;;;;;;;;;;;;;;;18.33;75.42;99289.56;4977451;28;19925;-61
2021/07/13 08:31:10;;;;;;;;;;;;;;;18.33;75.68;99293.06;4977215;28;20027;-61
2021/07/13 08:33:54;;;;;;;;;;;;;;;18.33;75.68;99295.69;4976611;28;19957;-61
2021/07/13 08:36:39;;;;;;;;;;;;;;;18.36;75.52;99299.97;4976920;28;19968;-61
2021/07/13 08:39:23;;;;;;;;;;;;;;;18.36;75.73;99299.97;4976175;28;20485;-61
2021/07/13 08:42:07;;;;;;;;;;;;;;;18.36;75.68;99284.25;4976272;28;19925;-61
2021/07/13 08:44:51;;;;;;;;;;;;;;;18.37;75.75;99281.56;4976785;28;19945;-61
2021/07/13 08:47:37;;;;;;;;;;;;;;;18.38;75.83;99277.19;4976583;28;19929;-60
2021/07/13 08:50:21;;;;;;;;;;;;;;;18.38;75.86;99285.06;4976252;28;19924;-61
2021/07/13 08:53:05;;;;;;;;;;;;;;;18.39;75.85;99284.16;4976696;28;20016;-61
2021/07/13 08:55:54;;;;;;;;;;;;;;;18.38;75.77;99287.69;4976476;28;20297;-61
2021/07/13 08:58:38;;;;;;;;;;;;;;;18.38;75.89;99300.81;4976700;28;19924;-61
2021/07/13 09:01:22;;;;;;;;;;;;;;;18.38;75.92;99292.94;4976614;28;19925;-61
2021/07/13 09:04:06;;;;;;;;;;;;;;;18.37;76.07;99304.31;4976852;28;19929;-61
2021/07/13 09:06:53;;;;;;;;;;;;;;;18.37;75.71;99299.09;4976640;28;19925;-63
2021/07/13 09:09:38;;;;;;;;;;;;;;;18.35;75.93;99303.50;4976554;28;19940;-61
2021/07/13 09:12:23;;;;;;;;;;;;;;;18.35;75.65;99308.75;4975355;28;19925;-61
2021/07/13 09:15:09;;;;;;;;;;;;;;;18.34;75.95;99312.28;4975741;28;20404;-61
2021/07/13 09:17:53;;;;;;;;;;;;;;;18.35;75.94;99314.00;4975528;28;19973;-61
2021/07/13 09:20:37;;;;;;;;;;;;;;;18.33;76.03;99314.06;4975684;28;19932;-61
2021/07/13 09:23:21;;;;;;;;;;;;;;;18.34;75.80;99318.41;4976549;28;19973;-60
2021/07/13 09:26:05;;;;;;;;;;;;;;;18.33;75.95;99302.69;4975238;28;19944;-61
2021/07/13 09:28:49;;;;;;;;;;;;;;;18.33;75.88;99310.56;4975969;28;19925;-61
2021/07/13 09:31:33;;;;;;;;;;;;;;;18.33;76.10;99318.41;4974921;28;19941;-61
2021/07/13 09:34:19;;;;;;;;;;;;;;;18.34;76.14;99317.53;4975251;28;19964;-61
2021/07/13 09:37:16;;;;;;;;;;;;;;;18.33;76.12;99313.19;4975734;28;19969;-61
2021/07/13 09:40:10;;;;;;;;;;;;;;;18.32;76.06;99312.34;4974985;28;19924;-61
2021/07/13 09:42:55;;;;;;;;;;;;;;;18.32;76.10;99311.47;4975777;28;19985;-61
2021/07/13 09:45:45;;;;;;;;;;;;;;;18.32;76.16;99308.84;4975150;28;19969;-61
2021/07/13 09:48:32;;;;;;;;;;;;;;;18.32;76.27;99306.22;4975759;28;19925;-63
2021/07/13 09:51:16;;;;;;;;;;;;;;;18.31;76.15;99310.59;4974508;28;19944;-62
2021/07/13 09:54:00;;;;;;;;;;;;;;;18.31;75.77;99315.84;4975655;28;19925;-63
2021/07/13 09:56:45;;;;;;;;;;;;;;;18.30;76.12;99308.00;4974848;28;20316;-63
2021/07/13 09:59:29;;;;;;;;;;;;;;;18.29;76.16;99306.31;4974564;28;19973;-62
2021/07/13 10:02:15;;;;;;;;;;;;;;;18.29;76.17;99306.31;4974403;28;19957;-63
2021/07/13 10:05:00;;;;;;;;;;;;;;;18.29;76.17;99308.94;4974687;28;20321;-62
2021/07/13 10:07:46;;;;;;;;;;;;;;;18.28;76.17;99310.69;4988350;28;19925;-62
2021/07/13 10:10:30;;;;;;;;;;;;;;;18.29;75.99;99324.69;4975403;28;19925;-63
2021/07/13 10:13:15;;;;;;;;;;;;;;;18.29;76.36;99320.28;4974936;28;19925;-62
2021/07/13 10:16:00;;;;;;;;;;;;;;;18.29;76.21;99322.06;4974662;28;20384;-62
2021/07/13 10:18:44;;;;;;;;;;;;;;;18.29;76.09;99324.69;4975660;28;19924;-62
2021/07/13 10:21:29;;;;;;;;;;;;;;;18.30;76.29;99329.00;4973733;28;19925;-62
2021/07/13 10:24:14;;;;;;;;;;;;;;;18.30;76.36;99315.88;4975222;28;19924;-62
2021/07/13 10:26:59;;;;;;;;;;;;;;;18.30;76.22;99322.00;4974729;28;19925;-62
2021/07/13 10:29:44;;;;;;;;;;;;;;;18.29;76.08;99319.44;4975125;28;19964;-62
2021/07/13 10:32:27;;;;;;;;;;;;;;;18.30;76.42;99308.00;4974787;28;19925;-62
2021/07/13 10:35:25;;;;;;;;;;;;;;;18.30;76.40;99308.88;4975333;28;20298;-62
2021/07/13 10:38:12;;;;;;;;;;;;;;;18.29;76.20;99309.78;4974557;28;19925;-62
2021/07/13 10:40:58;;;;;;;;;;;;;;;18.30;76.12;99302.75;4974784;28;19925;-62
2021/07/13 10:43:47;;;;;;;;;;;;;;;18.30;76.57;99311.50;4973988;28;19981;-67
2021/07/13 10:46:31;;;;;;;;;;;;;;;18.30;76.35;99308.88;4973532;28;20016;-65
2021/07/13 10:49:15;;;;;;;;;;;;;;;18.30;76.54;99306.25;4975072;28;19924;-65
2021/07/13 10:51:59;;;;;;;;;;;;;;;18.30;76.52;99310.63;4974838;28;19924;-65
2021/07/13 10:54:48;;;;;;;;;;;;;;;18.31;76.58;99314.97;4974983;28;19988;-65
2021/07/13 10:57:32;;;;;;;;;;;;;;;18.30;76.45;99310.63;4974955;28;19964;-65
2021/07/13 11:00:16;;;;;;;;;;;;;;;18.30;76.48;99311.50;4974835;28;20337;-65
2021/07/13 11:03:00;;;;;;;;;;;;;;;18.30;76.65;99315.88;4974399;28;19973;-67
2021/07/13 11:05:44;;;;;;;;;;;;;;;18.31;76.62;99312.34;4974880;28;19924;-67
2021/07/13 11:08:40;;;;;;;;;;;;;;;18.31;76.41;99322.84;4975160;28;19942;-66
2021/07/13 11:11:27;;;;;;;;;;;;;;;18.30;76.48;99321.13;4973425;28;20008;-66
2021/07/13 11:14:11;;;;;;;;;;;;;;;18.30;76.37;99313.25;4973630;28;19925;-66
2021/07/13 11:16:58;;;;;;;;;;;;;;;18.29;76.55;99320.28;4974644;28;19929;-66
2021/07/13 11:19:42;;;;;;;;;;;;;;;18.26;76.38;99318.63;4974230;28;20332;-65
2021/07/13 11:22:28;;;;;;;;;;;;;;;18.25;76.63;99314.25;4974046;28;20361;-65
2021/07/13 11:25:23;;;;;;;;;;;;;;;18.26;76.49;99315.13;4973824;28;19972;-65
2021/07/13 11:28:07;;;;;;;;;;;;;;;18.25;76.63;99313.38;4974455;28;20424;-65
2021/07/13 11:30:52;;;;;;;;;;;;;;;18.25;76.60;99311.63;4974668;28;19968;-65
2021/07/13 11:33:39;;;;;;;;;;;;;;;18.26;76.67;99313.38;4974353;28;19929;-67
2021/07/13 11:36:24;;;;;;;;;;;;;;;18.26;76.69;99312.50;4977131;28;19925;-65
2021/07/13 11:39:29;;;;;;;;;;;;;;;18.25;76.80;99309.03;4978422;28;19925;-66
2021/07/13 11:42:14;;;;;;;;;;;;;;;18.29;76.67;99316.81;4977869;28;20388;-65
2021/07/13 11:45:02;;;;;;;;;;;;;;;18.28;76.78;99312.47;4977604;28;19925;-65
2021/07/13 11:47:45;;;;;;;;;;;;;;;18.28;76.75;99308.06;4977706;28;20452;-66
2021/07/13 11:50:32;;;;;;;;;;;;;;;18.28;76.78;99310.69;4977291;28;20000;-65
2021/07/13 11:53:20;;;;;;;;;;;;;;;18.28;76.84;99310.69;4977822;28;19965;-67
2021/07/13 11:56:04;;;;;;;;;;;;;;;18.28;76.75;99310.69;4977852;28;20013;-66
2021/07/13 11:58:48;;;;;;;;;;;;;;;18.29;76.84;99314.19;4977692;28;19925;-67
2021/07/13 12:01:33;;;;;;;;;;;;;;;18.29;76.75;99315.03;4977315;28;19941;-67
2021/07/13 12:04:17;;;;;;;;;;;;;;;18.29;76.82;99327.31;4977853;28;19945;-67
2021/07/13 12:07:01;;;;;;;;;;;;;;;18.28;76.74;99317.72;4977811;28;20026;-67
2021/07/13 12:09:46;;;;;;;;;;;;;;;18.27;76.60;99319.47;4977379;28;19996;-67
2021/07/13 12:12:34;;;;;;;;;;;;;;;18.28;76.76;99315.09;4977068;28;20400;-67
2021/07/13 12:15:20;;;;;;;;;;;;;;;18.26;76.62;99313.38;4977786;28;19925;-67
2021/07/13 12:18:04;;;;;;;;;;;;;;;18.26;76.66;99309.88;4977315;28;19945;-67
2021/07/13 12:20:54;;;;;;;;;;;;;;;18.26;76.80;99308.13;4977680;28;19924;-67
2021/07/13 12:23:42;;;;;;;;;;;;;;;18.28;76.60;99304.59;4977500;28;20397;-67
2021/07/13 12:26:31;;;;;;;;;;;;;;;18.27;76.67;99301.09;4977163;28;20396;-67
2021/07/13 12:29:22;;;;;;;;;;;;;;;18.27;76.65;99298.47;4976756;28;19925;-67
2021/07/13 12:32:07;;;;;;;;;;;;;;;18.26;76.69;99302.88;4976570;28;19971;-67
2021/07/13 12:34:52;;;;;;;;;;;;;;;18.25;76.66;99303.78;4977329;28;19987;-67
2021/07/13 12:37:37;;;;;;;;;;;;;;;18.24;76.72;99296.81;4976559;28;19941;-67
2021/07/13 12:40:27;;;;;;;;;;;;;;;18.25;76.79;99300.28;4976549;28;19925;-67
2021/07/13 12:43:12;;;;;;;;;;;;;;;18.25;76.66;99301.16;4975849;28;20333;-66
2021/07/13 12:45:56;;;;;;;;;;;;;;;18.26;76.83;99295.00;4975284;28;20038;-66
2021/07/13 12:48:46;;;;;;;;;;;;;;;18.26;76.65;99299.38;4976662;28;20021;-66
2021/07/13 12:51:30;;;;;;;;;;;;;;;18.27;76.86;99295.84;4975601;28;19972;-66
2021/07/13 12:54:14;;;;;;;;;;;;;;;18.27;76.87;99295.84;4976060;28;19925;-67
2021/07/13 12:56:58;;;;;;;;;;;;;;;18.28;76.81;99307.22;4976874;28;19973;-67
2021/07/13 12:59:58;;;;;;;;;;;;;;;18.25;76.82;99303.78;4975803;28;19925;-67
2021/07/13 13:02:43;;;;;;;;;;;;;;;18.26;76.79;99307.25;4975235;28;19924;-67
2021/07/13 13:05:28;;;;;;;;;;;;;;;18.25;76.66;99303.78;4975538;28;20012;-67
2021/07/13 13:08:17;;;;;;;;;;;;;;;18.25;76.76;99298.53;4976008;28;20004;-67
2021/07/13 13:11:02;;;;;;;;;;;;;;;18.23;76.71;99295.09;4975068;28;19960;-67
2021/07/13 13:13:46;;;;;;;;;;;;;;;18.23;76.78;99295.09;4975891;28;19971;-68
2021/07/13 13:16:40;;;;;;;;;;;;;;;18.24;76.61;99299.44;4976238;28;19940;-68
2021/07/13 13:19:25;;;;;;;;;;;;;;;18.23;76.58;99300.31;4976227;28;19981;-67
2021/07/13 13:22:09;;;;;;;;;;;;;;;18.24;76.79;99299.44;4976313;28;19965;-68
2021/07/13 13:24:53;;;;;;;;;;;;;;;18.26;76.56;99296.75;4976455;28;19924;-68
2021/07/13 13:27:37;;;;;;;;;;;;;;;18.26;76.65;99300.25;4974963;28;19952;-68
2021/07/13 13:30:21;;;;;;;;;;;;;;;18.27;76.68;99301.09;4974740;28;19994;-68
2021/07/13 13:33:05;;;;;;;;;;;;;;;18.27;76.74;99303.72;4975845;28;19925;-68
2021/07/13 13:38:39;;;;;;;;;;;;;;;18.28;76.74;99297.56;4975599;28;19973;-68
2021/07/13 13:41:24;;;;;;;;;;;;;;;18.29;76.78;99301.06;4975050;28;19969;-66
2021/07/13 13:44:08;;;;;;;;;;;;;;;18.29;76.71;99303.69;4974942;28;19925;-67
2021/07/13 13:46:52;;;;;;;;;;;;;;;18.29;76.86;99301.06;4976180;28;19924;-68
2021/07/13 13:49:36;;;;;;;;;;;;;;;18.30;76.59;99310.63;4976122;28;19953;-67
2021/07/13 13:52:19;;;;;;;;;;;;;;;18.30;76.72;99305.38;4975782;28;19973;-67
2021/07/13 13:55:04;;;;;;;;;;;;;;;18.30;76.70;99289.66;4974599;28;20031;-66
2021/07/13 13:57:52;;;;;;;;;;;;;;;18.30;76.71;99298.41;4974991;28;19925;-66
2021/07/13 14:00:36;;;;;;;;;;;;;;;18.30;76.43;99298.41;4974608;28;20324;-67
2021/07/13 14:03:20;;;;;;;;;;;;;;;18.29;76.71;99303.69;4975111;28;19965;-66
2021/07/13 14:06:04;;;;;;;;;;;;;;;18.27;76.67;99301.09;4975633;28;19925;-68
2021/07/13 14:08:49;;;;;;;;;;;;;;;18.26;76.51;99297.63;4975348;28;20436;-67
2021/07/13 14:11:33;;;;;;;;;;;;;;;18.25;76.66;99298.53;4975353;28;19925;-67
2021/07/13 14:14:22;;;;;;;;;;;;;;;18.24;76.50;99302.06;4975262;28;20321;-68
2021/07/13 14:17:07;;;;;;;;;;;;;;;18.23;76.57;99304.69;4975313;28;19964;-68
2021/07/13 14:19:51;;;;;;;;;;;;;;;18.22;76.43;99302.97;4975082;28;19941;-67
2021/07/13 14:22:36;;;;;;;;;;;;;;;18.22;76.38;99297.72;4974656;28;19964;-68
2021/07/13 14:25:19;;;;;;;;;;;;;;;18.23;76.46;99304.69;4975496;28;19952;-68